createdAt,value
2018-11-11T00:00:09.708Z,99.99
2018-11-11T00:01:09.794Z,99.99
2018-11-11T00:02:09.832Z,99.99
2018-11-11T00:03:09.875Z,99.99
2018-11-11T00:04:09.913Z,99.99
2018-11-11T00:05:09.960Z,99.99
2018-11-11T00:06:10.023Z,99.99
2018-11-11T00:07:10.025Z,99.99
2018-11-11T00:08:10.112Z,99.99
2018-11-11T00:09:10.147Z,99.99
2018-11-11T00:10:10.201Z,99.99
2018-11-11T00:11:10.202Z,99.99
2018-11-11T00:12:10.280Z,99.99
2018-11-11T00:13:10.320Z,99.99
2018-11-11T00:14:10.370Z,99.99
2018-11-11T00:15:10.420Z,99.99
2018-11-11T00:16:10.453Z,99.99
2018-11-11T00:17:10.497Z,99.99
2018-11-11T00:18:10.573Z,99.99
2018-11-11T00:19:10.602Z,99.99
2018-11-11T00:20:10.640Z,99.99
2018-11-11T00:21:10.687Z,99.99
2018-11-11T00:22:10.732Z,99.99
2018-11-11T00:23:10.795Z,99.99
2018-11-11T00:24:10.883Z,99.99
2018-11-11T00:25:10.897Z,99.99
2018-11-11T00:26:10.914Z,99.99
2018-11-11T00:27:10.960Z,99.99
2018-11-11T00:28:11.033Z,99.99
2018-11-11T00:29:11.067Z,99.99
2018-11-11T00:30:11.128Z,99.99
2018-11-11T00:31:11.183Z,99.99
2018-11-11T00:32:11.211Z,99.99
2018-11-11T00:33:11.262Z,99.99
2018-11-11T00:34:11.296Z,99.99
2018-11-11T00:35:11.367Z,99.99
2018-11-11T00:36:11.376Z,99.99
2018-11-11T00:37:11.428Z,99.99
2018-11-11T00:38:11.498Z,99.99
2018-11-11T00:39:11.511Z,99.99
2018-11-11T00:40:11.570Z,99.99
2018-11-11T00:41:11.628Z,99.99
2018-11-11T00:42:11.694Z,99.99
2018-11-11T00:43:11.700Z,99.99
2018-11-11T00:44:11.755Z,99.99
2018-11-11T00:45:11.796Z,99.99
2018-11-11T00:46:11.846Z,99.99
2018-11-11T00:47:11.902Z,99.99
2018-11-11T00:48:11.927Z,99.99
2018-11-11T00:49:12.012Z,99.99
2018-11-11T00:50:12.042Z,99.99
2018-11-11T00:51:12.061Z,99.99
2018-11-11T00:52:12.134Z,99.99
2018-11-11T00:53:12.157Z,99.99
2018-11-11T00:54:12.220Z,99.99
2018-11-11T00:55:12.247Z,99.99
2018-11-11T00:56:12.317Z,99.99
2018-11-11T00:57:12.335Z,99.99
2018-11-11T00:58:12.433Z,99.99
2018-11-11T00:59:12.450Z,99.99
2018-11-11T01:00:12.462Z,99.99
2018-11-11T01:01:12.557Z,99.99
2018-11-11T01:02:12.579Z,99.99
2018-11-11T01:03:12.621Z,99.99
2018-11-11T01:04:12.655Z,99.99
2018-11-11T01:05:12.720Z,99.99
2018-11-11T01:06:12.743Z,99.99
2018-11-11T01:07:12.791Z,99.99
2018-11-11T01:08:12.859Z,99.99
2018-11-11T01:09:12.937Z,99.99
2018-11-11T01:10:12.979Z,99.99
2018-11-11T01:11:12.993Z,99.99
2018-11-11T01:12:13.056Z,99.99
2018-11-11T01:13:13.068Z,99.99
2018-11-11T01:14:13.110Z,99.99
2018-11-11T01:15:13.144Z,99.99
2018-11-11T01:16:13.227Z,99.99
2018-11-11T01:17:13.251Z,99.99
2018-11-11T01:18:13.284Z,99.99
2018-11-11T01:19:13.351Z,99.99
2018-11-11T01:20:13.381Z,99.99
2018-11-11T01:21:13.446Z,99.99
2018-11-11T01:22:13.779Z,99.99
2018-11-11T01:23:13.511Z,99.99
2018-11-11T01:24:13.555Z,99.99
2018-11-11T01:25:13.621Z,99.99
2018-11-11T01:26:13.725Z,99.99
2018-11-11T01:27:13.703Z,99.99
2018-11-11T01:28:13.745Z,99.99
2018-11-11T01:29:13.789Z,99.99
2018-11-11T01:30:13.898Z,99.99
2018-11-11T01:31:13.886Z,99.99
2018-11-11T01:32:13.932Z,99.99
2018-11-11T01:33:14.018Z,99.99
2018-11-11T01:34:14.060Z,99.99
2018-11-11T01:35:14.069Z,99.99
2018-11-11T01:36:14.119Z,99.99
2018-11-11T01:37:14.154Z,99.99
2018-11-11T01:38:14.252Z,99.99
2018-11-11T01:39:14.269Z,99.99
2018-11-11T01:40:14.312Z,99.99
2018-11-11T01:41:14.362Z,99.99
2018-11-11T01:42:14.417Z,99.99
2018-11-11T01:43:14.465Z,99.99
2018-11-11T01:44:14.554Z,99.99
2018-11-11T01:45:14.586Z,99.99
2018-11-11T01:46:14.600Z,99.99
2018-11-11T01:47:14.683Z,99.99
2018-11-11T01:48:14.713Z,99.99
2018-11-11T01:49:14.717Z,99.99
2018-11-11T01:50:14.783Z,99.99
2018-11-11T01:51:14.802Z,99.99
2018-11-11T01:52:14.848Z,99.99
2018-11-11T01:53:14.900Z,99.99
2018-11-11T01:54:14.959Z,99.99
2018-11-11T01:55:14.982Z,99.99
2018-11-11T01:56:15.029Z,99.99
2018-11-11T01:57:15.086Z,99.99
2018-11-11T01:58:15.122Z,99.99
2018-11-11T01:59:15.155Z,99.99
2018-11-11T02:00:15.212Z,99.99
2018-11-11T02:01:15.260Z,99.99
2018-11-11T02:02:15.374Z,99.99
2018-11-11T02:03:15.403Z,99.99
2018-11-11T02:04:15.422Z,99.99
2018-11-11T02:05:15.497Z,99.99
2018-11-11T02:06:15.565Z,99.99
2018-11-11T02:07:15.542Z,99.99
2018-11-11T02:08:15.578Z,99.99
2018-11-11T02:09:15.690Z,99.99
2018-11-11T02:10:15.739Z,99.99
2018-11-11T02:11:15.876Z,99.99
2018-11-11T02:12:15.833Z,99.99
2018-11-11T02:13:15.876Z,99.99
2018-11-11T02:14:15.918Z,99.99
2018-11-11T02:15:15.898Z,99.99
2018-11-11T02:16:16.020Z,99.99
2018-11-11T02:17:16.008Z,99.99
2018-11-11T02:18:16.048Z,99.99
2018-11-11T02:19:16.172Z,99.99
2018-11-11T02:20:16.162Z,99.99
2018-11-11T02:21:16.303Z,99.99
2018-11-11T02:22:16.279Z,99.99
2018-11-11T02:23:16.260Z,99.99
2018-11-11T02:24:16.407Z,99.99
2018-11-11T02:25:16.425Z,99.99
2018-11-11T02:26:16.424Z,99.99
2018-11-11T02:27:16.500Z,99.99
2018-11-11T02:28:16.666Z,99.99
2018-11-11T02:29:16.595Z,99.99
2018-11-11T02:30:16.616Z,99.99
2018-11-11T02:31:16.692Z,99.99
2018-11-11T02:32:16.705Z,99.99
2018-11-11T02:33:16.836Z,99.99
2018-11-11T02:34:16.836Z,99.99
2018-11-11T02:35:16.843Z,99.99
2018-11-11T02:36:16.937Z,99.99
2018-11-11T02:37:16.969Z,99.99
2018-11-11T02:38:16.973Z,99.99
2018-11-11T02:39:17.059Z,99.99
2018-11-11T02:40:17.058Z,99.99
2018-11-11T02:41:17.102Z,99.99
2018-11-11T02:42:17.149Z,99.99
2018-11-11T02:43:17.195Z,99.99
2018-11-11T02:44:17.293Z,99.99
2018-11-11T02:45:17.279Z,99.99
2018-11-11T02:46:17.337Z,99.99
2018-11-11T02:47:17.390Z,99.99
2018-11-11T02:48:17.425Z,99.99
2018-11-11T02:49:17.522Z,99.99
2018-11-11T02:50:17.533Z,99.99
2018-11-11T02:51:17.557Z,99.99
2018-11-11T02:52:17.622Z,99.99
2018-11-11T02:53:17.710Z,99.99
2018-11-11T02:54:17.712Z,99.99
2018-11-11T02:55:17.761Z,99.99
2018-11-11T02:56:17.807Z,99.99
2018-11-11T02:57:17.854Z,99.99
2018-11-11T02:58:17.929Z,99.99
2018-11-11T02:59:17.926Z,99.99
2018-11-11T03:00:17.967Z,99.99
2018-11-11T03:01:18.024Z,99.99
2018-11-11T03:02:18.110Z,99.99
2018-11-11T03:03:18.128Z,99.99
2018-11-11T03:04:18.270Z,99.99
2018-11-11T03:05:18.225Z,99.99
2018-11-11T03:06:18.271Z,99.99
2018-11-11T03:07:18.303Z,99.99
2018-11-11T03:08:18.342Z,99.99
2018-11-11T03:09:18.404Z,99.99
2018-11-11T03:10:18.457Z,99.99
2018-11-11T03:11:18.485Z,99.99
2018-11-11T03:12:18.553Z,99.99
2018-11-11T03:13:18.642Z,99.99
2018-11-11T03:14:18.671Z,99.99
2018-11-11T03:15:18.682Z,99.99
2018-11-11T03:16:18.741Z,99.99
2018-11-11T03:17:18.782Z,99.99
2018-11-11T03:18:18.825Z,99.99
2018-11-11T03:19:18.855Z,99.99
2018-11-11T03:20:18.927Z,99.99
2018-11-11T03:21:18.957Z,99.99
2018-11-11T03:22:19.039Z,99.99
2018-11-11T03:23:19.056Z,99.99
2018-11-11T03:24:19.112Z,99.99
2018-11-11T03:25:19.147Z,99.99
2018-11-11T03:26:19.185Z,99.99
2018-11-11T03:27:19.238Z,99.99
2018-11-11T03:28:19.290Z,99.99
2018-11-11T03:29:19.340Z,99.99
2018-11-11T03:30:19.401Z,99.99
2018-11-11T03:31:19.423Z,99.99
2018-11-11T03:32:19.462Z,99.99
2018-11-11T03:33:19.528Z,99.99
2018-11-11T03:34:19.572Z,99.99
2018-11-11T03:35:19.609Z,99.99
2018-11-11T03:36:19.637Z,99.99
2018-11-11T03:37:19.710Z,99.99
2018-11-11T03:38:19.736Z,99.99
2018-11-11T03:39:19.801Z,99.99
2018-11-11T03:40:19.853Z,99.99
2018-11-11T03:41:19.887Z,99.99
2018-11-11T03:42:19.956Z,99.99
2018-11-11T03:43:19.986Z,99.99
2018-11-11T03:44:20.023Z,99.99
2018-11-11T03:45:20.110Z,99.99
2018-11-11T03:46:20.115Z,99.99
2018-11-11T03:47:20.167Z,99.99
2018-11-11T03:48:20.203Z,99.99
2018-11-11T03:49:20.260Z,99.99
2018-11-11T03:50:20.325Z,99.99
2018-11-11T03:51:20.355Z,99.99
2018-11-11T03:52:20.379Z,99.99
2018-11-11T03:53:20.453Z,99.99
2018-11-11T03:54:20.499Z,99.99
2018-11-11T03:55:20.526Z,99.99
2018-11-11T03:56:20.614Z,99.99
2018-11-11T03:57:20.646Z,99.99
2018-11-11T03:58:20.662Z,99.99
2018-11-11T03:59:20.713Z,99.99
2018-11-11T04:00:20.752Z,99.99
2018-11-11T04:01:20.855Z,99.99
2018-11-11T04:02:20.872Z,99.99
2018-11-11T04:03:20.894Z,99.99
2018-11-11T04:04:20.935Z,99.99
2018-11-11T04:05:20.999Z,99.99
2018-11-11T04:06:21.031Z,99.99
2018-11-11T04:07:21.108Z,99.99
2018-11-11T04:08:21.179Z,99.99
2018-11-11T04:09:21.184Z,99.99
2018-11-11T04:10:21.278Z,99.99
2018-11-11T04:11:21.286Z,99.99
2018-11-11T04:12:21.312Z,99.99
2018-11-11T04:13:21.365Z,99.99
2018-11-11T04:14:21.398Z,99.99
2018-11-11T04:15:21.460Z,99.99
2018-11-11T04:16:21.505Z,99.99
2018-11-11T04:17:21.556Z,99.99
2018-11-11T04:18:21.613Z,99.99
2018-11-11T04:19:21.622Z,99.99
2018-11-11T04:20:21.668Z,99.99
2018-11-11T04:21:21.747Z,99.99
2018-11-11T04:22:21.764Z,99.99
2018-11-11T04:23:21.813Z,99.99
2018-11-11T04:24:21.856Z,99.99
2018-11-11T04:25:21.913Z,99.99
2018-11-11T04:26:21.974Z,99.99
2018-11-11T04:27:22.005Z,99.99
2018-11-11T04:28:22.072Z,99.99
2018-11-11T04:29:22.162Z,99.99
2018-11-11T04:30:22.148Z,99.99
2018-11-11T04:31:22.201Z,99.99
2018-11-11T04:32:22.245Z,99.99
2018-11-11T04:33:22.311Z,99.99
2018-11-11T04:34:22.334Z,99.99
2018-11-11T04:35:22.377Z,99.99
2018-11-11T04:36:22.436Z,99.99
2018-11-11T04:37:22.507Z,99.99
2018-11-11T04:38:22.523Z,99.99
2018-11-11T04:39:22.702Z,99.99
2018-11-11T04:40:22.608Z,99.99
2018-11-11T04:41:22.752Z,99.99
2018-11-11T04:42:22.680Z,99.99
2018-11-11T04:43:22.747Z,99.99
2018-11-11T04:44:22.786Z,99.99
2018-11-11T04:45:22.839Z,99.99
2018-11-11T04:46:22.923Z,99.99
2018-11-11T04:47:22.919Z,99.99
2018-11-11T04:48:22.976Z,99.99
2018-11-11T04:49:23.015Z,99.99
2018-11-11T04:50:23.060Z,99.99
2018-11-11T04:51:23.109Z,99.99
2018-11-11T04:52:23.179Z,99.99
2018-11-11T04:53:23.213Z,99.99
2018-11-11T04:54:23.272Z,99.99
2018-11-11T04:55:23.298Z,99.99
2018-11-11T04:56:23.347Z,99.99
2018-11-11T04:57:23.442Z,99.99
2018-11-11T04:58:23.423Z,99.99
2018-11-11T04:59:23.504Z,99.99
2018-11-11T05:00:23.551Z,99.99
2018-11-11T05:01:23.578Z,99.99
2018-11-11T05:02:23.680Z,99.99
2018-11-11T05:03:23.677Z,99.99
2018-11-11T05:04:23.771Z,99.99
2018-11-11T05:05:23.749Z,99.99
2018-11-11T05:06:23.796Z,99.99
2018-11-11T05:07:23.844Z,99.99
2018-11-11T05:08:23.903Z,99.99
2018-11-11T05:09:23.987Z,99.99
2018-11-11T05:10:23.991Z,99.99
2018-11-11T05:11:24.039Z,99.99
2018-11-11T05:12:24.090Z,99.99
2018-11-11T05:13:24.111Z,99.99
2018-11-11T05:14:24.151Z,99.99
2018-11-11T05:15:24.198Z,99.99
2018-11-11T05:16:24.254Z,99.99
2018-11-11T05:17:24.581Z,99.99
2018-11-11T05:18:24.393Z,99.99
2018-11-11T05:19:24.388Z,99.99
2018-11-11T05:20:24.433Z,99.99
2018-11-11T05:21:24.518Z,99.99
2018-11-11T05:22:24.521Z,99.99
2018-11-11T05:23:24.588Z,99.99
2018-11-11T05:24:24.640Z,99.99
2018-11-11T05:25:24.656Z,99.99
2018-11-11T05:26:24.699Z,99.99
2018-11-11T05:27:24.753Z,99.99
2018-11-11T05:28:25.115Z,99.99
2018-11-11T05:29:24.829Z,99.99
2018-11-11T05:30:24.878Z,99.99
2018-11-11T05:31:24.977Z,99.99
2018-11-11T05:32:25.013Z,99.99
2018-11-11T05:33:25.069Z,99.99
2018-11-11T05:34:25.064Z,99.99
2018-11-11T05:35:25.126Z,99.99
2018-11-11T05:36:25.162Z,99.99
2018-11-11T05:37:25.198Z,99.99
2018-11-11T05:38:25.269Z,99.99
2018-11-11T05:39:25.560Z,99.99
2018-11-11T05:40:25.345Z,99.99
2018-11-11T05:41:25.399Z,99.99
2018-11-11T05:42:25.443Z,99.99
2018-11-11T05:43:25.476Z,99.99
2018-11-11T05:44:25.536Z,99.99
2018-11-11T05:45:25.618Z,99.99
2018-11-11T05:46:25.615Z,99.99
2018-11-11T05:47:25.662Z,99.99
2018-11-11T05:48:25.717Z,99.99
2018-11-11T05:49:25.756Z,99.99
2018-11-11T05:50:25.790Z,99.99
2018-11-11T05:51:25.841Z,99.99
2018-11-11T05:52:25.883Z,99.99
2018-11-11T05:53:25.946Z,99.99
2018-11-11T05:54:26.003Z,99.99
2018-11-11T05:55:26.065Z,99.99
2018-11-11T05:56:26.079Z,99.99
2018-11-11T05:57:26.162Z,99.99
2018-11-11T05:58:26.173Z,99.99
2018-11-11T05:59:26.218Z,99.99
2018-11-11T06:00:26.262Z,99.99
2018-11-11T06:01:26.312Z,99.99
2018-11-11T06:02:26.334Z,99.99
2018-11-11T06:03:26.414Z,99.99
2018-11-11T06:04:26.417Z,99.99
2018-11-11T06:05:26.493Z,99.99
2018-11-11T06:06:26.541Z,99.99
2018-11-11T06:07:26.587Z,99.99
2018-11-11T06:08:26.611Z,99.99
2018-11-11T06:09:26.675Z,99.99
2018-11-11T06:10:26.710Z,99.99
2018-11-11T06:11:26.770Z,99.99
2018-11-11T06:12:26.807Z,99.99
2018-11-11T06:13:26.887Z,99.99
2018-11-11T06:14:26.896Z,99.99
2018-11-11T06:15:26.949Z,99.99
2018-11-11T06:16:26.973Z,99.99
2018-11-11T06:17:27.009Z,99.99
2018-11-11T06:18:27.075Z,99.99
2018-11-11T06:19:27.132Z,99.99
2018-11-11T06:20:27.146Z,99.99
2018-11-11T06:21:27.250Z,99.99
2018-11-11T06:22:27.245Z,99.99
2018-11-11T06:23:27.311Z,99.99
2018-11-11T06:24:27.370Z,99.99
2018-11-11T06:25:27.389Z,99.99
2018-11-11T06:26:27.453Z,99.99
2018-11-11T06:27:27.814Z,99.99
2018-11-11T06:28:27.545Z,99.99
2018-11-11T06:29:27.571Z,99.99
2018-11-11T06:30:27.636Z,99.99
2018-11-11T06:31:27.653Z,99.99
2018-11-11T06:32:27.710Z,99.99
2018-11-11T06:33:27.748Z,99.99
2018-11-11T06:34:27.797Z,99.99
2018-11-11T06:35:27.866Z,99.99
2018-11-11T06:36:27.915Z,99.99
2018-11-11T06:37:27.957Z,99.99
2018-11-11T06:38:28.245Z,99.99
2018-11-11T06:39:28.050Z,99.99
2018-11-11T06:40:28.074Z,99.99
2018-11-11T06:41:28.159Z,99.99
2018-11-11T06:42:28.173Z,99.99
2018-11-11T06:43:28.231Z,99.99
2018-11-11T06:44:30.043Z,99.99
2018-11-11T06:45:28.328Z,99.99
2018-11-11T06:46:28.362Z,99.99
2018-11-11T06:47:28.395Z,99.99
2018-11-11T06:48:28.449Z,99.99
2018-11-11T06:49:28.503Z,99.99
2018-11-11T06:50:28.536Z,99.99
2018-11-11T06:51:28.589Z,99.99
2018-11-11T06:52:28.620Z,99.99
2018-11-11T06:53:28.673Z,99.99
2018-11-11T06:54:28.742Z,99.99
2018-11-11T06:55:28.771Z,99.99
2018-11-11T06:56:28.845Z,99.99
2018-11-11T06:57:28.874Z,99.99
2018-11-11T06:58:28.886Z,99.99
2018-11-11T06:59:28.940Z,99.99
2018-11-11T07:00:29.149Z,99.99
2018-11-11T07:01:29.097Z,99.99
2018-11-11T07:02:29.140Z,99.99
2018-11-11T07:03:29.143Z,99.99
2018-11-11T07:04:29.179Z,99.99
2018-11-11T07:05:29.221Z,99.99
2018-11-11T07:06:29.276Z,99.99
2018-11-11T07:07:29.311Z,99.99
2018-11-11T07:08:29.382Z,99.99
2018-11-11T07:09:29.470Z,99.99
2018-11-11T07:10:29.475Z,99.99
2018-11-11T07:11:29.744Z,99.99
2018-11-11T07:12:29.569Z,99.99
2018-11-11T07:13:29.596Z,99.99
2018-11-11T07:14:29.626Z,99.99
2018-11-11T07:15:29.698Z,99.99
2018-11-11T07:16:29.719Z,99.99
2018-11-11T07:17:29.843Z,99.99
2018-11-11T07:18:29.849Z,99.99
2018-11-11T07:19:29.853Z,99.99
2018-11-11T07:20:29.931Z,99.99
2018-11-11T07:21:29.977Z,99.99
2018-11-11T07:22:30.035Z,99.99
2018-11-11T07:23:30.121Z,99.99
2018-11-11T07:24:30.114Z,99.99
2018-11-11T07:25:30.158Z,99.99
2018-11-11T07:26:30.212Z,99.99
2018-11-11T07:27:30.276Z,99.99
2018-11-11T07:28:30.276Z,99.99
2018-11-11T07:29:30.347Z,99.99
2018-11-11T07:30:30.369Z,99.99
2018-11-11T07:31:30.435Z,99.99
2018-11-11T07:32:30.503Z,99.99
2018-11-11T07:33:30.527Z,99.99
2018-11-11T07:34:30.577Z,99.99
2018-11-11T07:35:30.611Z,99.99
2018-11-11T07:36:30.660Z,99.99
2018-11-11T07:37:30.730Z,99.99
2018-11-11T07:38:30.762Z,99.99
2018-11-11T07:39:30.844Z,99.99
2018-11-11T07:40:30.831Z,99.99
2018-11-11T07:41:30.877Z,99.99
2018-11-11T07:42:31.035Z,99.99
2018-11-11T07:43:30.997Z,99.99
2018-11-11T07:44:31.043Z,99.99
2018-11-11T07:45:31.080Z,99.99
2018-11-11T07:46:31.318Z,99.99
2018-11-11T07:47:31.177Z,99.99
2018-11-11T07:48:31.273Z,99.99
2018-11-11T07:49:31.256Z,99.99
2018-11-11T07:50:31.295Z,99.99
2018-11-11T07:51:31.366Z,99.99
2018-11-11T07:52:31.408Z,99.99
2018-11-11T07:53:31.444Z,99.99
2018-11-11T07:54:31.504Z,99.99
2018-11-11T07:55:31.540Z,99.99
2018-11-11T07:56:31.626Z,99.99
2018-11-11T07:57:31.870Z,99.99
2018-11-11T07:58:31.742Z,99.99
2018-11-11T07:59:31.724Z,99.99
2018-11-11T08:00:31.791Z,99.99
2018-11-11T08:01:31.835Z,99.99
2018-11-11T08:02:31.863Z,99.99
2018-11-11T08:03:31.916Z,99.99
2018-11-11T08:04:31.945Z,99.99
2018-11-11T08:05:31.992Z,99.99
2018-11-11T08:06:32.030Z,99.99
2018-11-11T08:07:32.132Z,99.99
2018-11-11T08:08:32.139Z,99.99
2018-11-11T08:09:32.181Z,99.99
2018-11-11T08:10:32.223Z,99.99
2018-11-11T08:11:32.277Z,99.99
2018-11-11T08:12:32.311Z,99.99
2018-11-11T08:13:32.357Z,99.99
2018-11-11T08:14:32.407Z,99.99
2018-11-11T08:15:32.454Z,99.99
2018-11-11T08:16:32.511Z,99.99
2018-11-11T08:17:32.538Z,99.99
2018-11-11T08:18:32.708Z,99.99
2018-11-11T08:19:32.623Z,99.99
2018-11-11T08:20:32.685Z,99.99
2018-11-11T08:21:32.765Z,99.99
2018-11-11T08:22:32.759Z,99.99
2018-11-11T08:23:33.068Z,99.99
2018-11-11T08:24:32.896Z,99.99
2018-11-11T08:25:32.959Z,99.99
2018-11-11T08:26:32.954Z,99.99
2018-11-11T08:27:33.009Z,99.99
2018-11-11T08:28:33.051Z,99.99
2018-11-11T08:29:33.105Z,99.99
2018-11-11T08:30:33.144Z,99.99
2018-11-11T08:31:33.196Z,99.99
2018-11-11T08:32:33.221Z,99.99
2018-11-11T08:33:33.292Z,99.99
2018-11-11T08:34:33.590Z,99.99
2018-11-11T08:35:33.406Z,99.99
2018-11-11T08:36:33.431Z,99.99
2018-11-11T08:37:33.452Z,99.99
2018-11-11T08:38:33.548Z,99.99
2018-11-11T08:39:33.564Z,99.99
2018-11-11T08:40:33.640Z,99.99
2018-11-11T08:41:33.638Z,99.99
2018-11-11T08:42:33.701Z,99.99
2018-11-11T08:43:33.755Z,99.99
2018-11-11T08:44:33.918Z,99.99
2018-11-11T08:45:33.821Z,99.99
2018-11-11T08:46:33.865Z,99.99
2018-11-11T08:47:33.943Z,99.99
2018-11-11T08:48:33.990Z,99.99
2018-11-11T08:49:34.028Z,99.99
2018-11-11T08:50:34.121Z,99.99
2018-11-11T08:51:34.118Z,99.99
2018-11-11T08:52:34.172Z,99.99
2018-11-11T08:53:34.202Z,99.99
2018-11-11T08:54:34.258Z,99.99
2018-11-11T08:55:34.288Z,99.99
2018-11-11T08:56:34.333Z,99.99
2018-11-11T08:57:34.378Z,99.99
2018-11-11T08:58:34.450Z,99.99
2018-11-11T08:59:34.532Z,99.99
2018-11-11T09:00:34.547Z,99.99
2018-11-11T09:01:34.621Z,99.99
2018-11-11T09:02:34.630Z,99.99
2018-11-11T09:03:34.657Z,99.99
2018-11-11T09:04:34.727Z,99.99
2018-11-11T09:05:34.752Z,99.99
2018-11-11T09:06:34.821Z,99.99
2018-11-11T09:07:34.894Z,99.99
2018-11-11T09:08:34.903Z,99.99
2018-11-11T09:09:34.972Z,99.99
2018-11-11T09:10:34.981Z,99.99
2018-11-11T09:11:35.162Z,99.99
2018-11-11T09:12:35.092Z,99.99
2018-11-11T09:13:35.154Z,99.99
2018-11-11T09:14:35.199Z,99.99
2018-11-11T09:15:35.238Z,99.99
2018-11-11T09:16:35.273Z,99.99
2018-11-11T09:17:35.402Z,99.99
2018-11-11T09:18:35.361Z,99.99
2018-11-11T09:19:35.428Z,99.99
2018-11-11T09:20:35.463Z,99.99
2018-11-11T09:21:35.635Z,99.99
2018-11-11T09:22:35.562Z,99.99
2018-11-11T09:23:35.617Z,99.99
2018-11-11T09:24:35.641Z,99.99
2018-11-11T09:25:35.731Z,99.99
2018-11-11T09:26:35.730Z,99.99
2018-11-11T09:27:35.775Z,99.99
2018-11-11T09:28:35.861Z,99.99
2018-11-11T09:29:36.016Z,99.99
2018-11-11T09:30:35.924Z,99.99
2018-11-11T09:31:35.961Z,99.99
2018-11-11T09:32:36.284Z,99.99
2018-11-11T09:33:36.089Z,99.99
2018-11-11T09:34:36.127Z,99.99
2018-11-11T09:35:36.183Z,99.99
2018-11-11T09:36:36.233Z,99.99
2018-11-11T09:37:36.249Z,99.99
2018-11-11T09:38:36.318Z,99.99
2018-11-11T09:39:36.374Z,99.99
2018-11-11T09:40:36.404Z,99.99
2018-11-11T09:41:36.467Z,99.99
2018-11-11T09:42:36.650Z,99.99
2018-11-11T09:43:36.539Z,99.99
2018-11-11T09:44:36.599Z,99.99
2018-11-11T09:45:36.629Z,99.99
2018-11-11T09:46:36.689Z,99.99
2018-11-11T09:47:36.756Z,99.99
2018-11-11T09:48:36.791Z,99.99
2018-11-11T09:49:36.857Z,99.99
2018-11-11T09:50:36.926Z,99.99
2018-11-11T09:51:36.952Z,99.99
2018-11-11T09:52:37.026Z,99.99
2018-11-11T09:53:37.053Z,99.99
2018-11-11T09:54:37.069Z,99.99
2018-11-11T09:55:37.135Z,99.99
2018-11-11T09:56:37.237Z,99.99
2018-11-11T09:57:37.235Z,99.99
2018-11-11T09:58:37.376Z,99.99
2018-11-11T09:59:37.417Z,99.99
2018-11-11T10:00:37.380Z,99.99
2018-11-11T10:01:37.425Z,98.19
2018-11-11T10:02:37.465Z,94.76
2018-11-11T10:03:37.584Z,91.78
2018-11-11T10:04:37.584Z,87.47
2018-11-11T10:05:37.635Z,88.30
2018-11-11T10:06:37.933Z,87.76
2018-11-11T10:07:37.789Z,85.97
2018-11-11T10:08:37.816Z,83.47
2018-11-11T10:09:37.862Z,81.15
2018-11-11T10:10:37.917Z,80.41
2018-11-11T10:11:37.955Z,78.54
2018-11-11T10:12:38.250Z,79.72
2018-11-11T10:13:38.068Z,80.86
2018-11-11T10:14:38.151Z,80.23
2018-11-11T10:15:38.189Z,80.44
2018-11-11T10:16:38.249Z,80.58
2018-11-11T10:17:38.312Z,79.97
2018-11-11T10:18:38.353Z,77.93
2018-11-11T10:19:38.422Z,74.85
2018-11-11T10:20:38.531Z,75.93
2018-11-11T10:21:38.563Z,77.42
2018-11-11T10:22:38.583Z,79.21
2018-11-11T10:23:38.652Z,80.21
2018-11-11T10:24:38.689Z,82.23
2018-11-11T10:25:38.732Z,83.62
2018-11-11T10:26:38.817Z,86.11
2018-11-11T10:27:38.883Z,88.62
2018-11-11T10:28:39.189Z,89.16
2018-11-11T10:29:39.050Z,89.60
2018-11-11T10:30:39.053Z,90.09
2018-11-11T10:31:39.076Z,90.44
2018-11-11T10:32:39.155Z,91.95
2018-11-11T10:33:39.275Z,92.79
2018-11-11T10:34:39.296Z,94.34
2018-11-11T10:35:39.323Z,95.66
2018-11-11T10:36:39.370Z,96.73
2018-11-11T10:37:39.468Z,97.17
2018-11-11T10:38:39.488Z,98.00
2018-11-11T10:39:39.550Z,98.73
2018-11-11T10:40:39.599Z,99.99
2018-11-11T10:41:39.636Z,99.07
2018-11-11T10:42:39.703Z,99.07
2018-11-11T10:43:39.765Z,99.27
2018-11-11T10:44:39.830Z,99.51
2018-11-11T10:45:39.863Z,98.34
2018-11-11T10:46:39.918Z,97.56
2018-11-11T10:47:39.976Z,97.85
2018-11-11T10:48:40.022Z,98.63
2018-11-11T10:49:40.112Z,98.24
2018-11-11T10:50:40.136Z,97.90
2018-11-11T10:51:40.197Z,97.31
2018-11-11T10:52:40.283Z,97.51
2018-11-11T10:53:40.297Z,96.59
2018-11-11T10:54:40.393Z,95.81
2018-11-11T10:55:40.408Z,96.00
2018-11-11T10:56:40.446Z,96.10
2018-11-11T10:57:40.494Z,94.83
2018-11-11T10:58:40.585Z,94.83
2018-11-11T10:59:40.629Z,94.24
2018-11-11T11:00:40.665Z,94.69
2018-11-11T11:01:40.734Z,94.88
2018-11-11T11:02:40.794Z,95.61
2018-11-11T11:03:40.848Z,96.69
2018-11-11T11:04:40.886Z,97.66
2018-11-11T11:05:40.920Z,98.24
2018-11-11T11:06:40.992Z,96.29
2018-11-11T11:07:41.038Z,91.74
2018-11-11T11:08:41.100Z,88.70
2018-11-11T11:09:41.143Z,86.05
2018-11-11T11:10:41.213Z,82.09
2018-11-11T11:11:41.269Z,79.17
2018-11-11T11:12:41.340Z,74.96
2018-11-11T11:13:41.437Z,73.29
2018-11-11T11:14:41.432Z,71.29
2018-11-11T11:15:41.534Z,68.89
2018-11-11T11:16:41.550Z,67.81
2018-11-11T11:17:41.626Z,68.10
2018-11-11T11:18:41.676Z,66.99
2018-11-11T11:19:41.734Z,69.45
2018-11-11T11:20:41.791Z,69.58
2018-11-11T11:21:41.838Z,70.27
2018-11-11T11:22:41.909Z,68.07
2018-11-11T11:23:41.973Z,66.63
2018-11-11T11:24:42.003Z,67.22
2018-11-11T11:25:42.116Z,66.06
2018-11-11T11:26:42.187Z,64.35
2018-11-11T11:27:42.197Z,61.71
2018-11-11T11:28:42.254Z,61.07
2018-11-11T11:29:42.313Z,58.83
2018-11-11T11:30:42.372Z,60.55
2018-11-11T11:31:42.627Z,61.51
2018-11-11T11:32:42.549Z,63.46
2018-11-11T11:33:42.568Z,63.29
2018-11-11T11:34:42.623Z,64.12
2018-11-11T11:35:42.869Z,65.97
2018-11-11T11:36:42.751Z,67.51
2018-11-11T11:37:42.846Z,70.36
2018-11-11T11:38:42.884Z,73.63
2018-11-11T11:39:42.921Z,74.19
2018-11-11T11:40:42.995Z,73.57
2018-11-11T11:41:43.054Z,71.91
2018-11-11T11:42:43.116Z,70.92
2018-11-11T11:43:43.157Z,70.26
2018-11-11T11:44:43.241Z,73.89
2018-11-11T11:45:43.313Z,75.23
2018-11-11T11:46:43.341Z,75.39
2018-11-11T11:47:43.415Z,75.52
2018-11-11T11:48:43.512Z,75.52
2018-11-11T11:49:43.572Z,74.90
2018-11-11T11:50:43.583Z,75.98
2018-11-11T11:51:43.701Z,75.30
2018-11-11T11:52:43.711Z,73.77
2018-11-11T11:53:43.774Z,72.96
2018-11-11T11:54:43.828Z,72.86
2018-11-11T11:55:43.887Z,72.39
2018-11-11T11:56:43.923Z,73.44
2018-11-11T11:57:43.970Z,74.35
2018-11-11T11:58:44.055Z,75.45
2018-11-11T11:59:44.103Z,77.33
2018-11-11T12:00:44.178Z,79.57
2018-11-11T12:01:44.252Z,82.46
2018-11-11T12:02:44.316Z,83.94
2018-11-11T12:03:44.385Z,85.21
2018-11-11T12:04:44.381Z,86.24
2018-11-11T12:05:44.449Z,86.83
2018-11-11T12:06:44.514Z,87.02
2018-11-11T12:07:44.552Z,87.12
2018-11-11T12:08:44.741Z,86.83
2018-11-11T12:09:44.658Z,86.88
2018-11-11T12:10:44.746Z,86.88
2018-11-11T12:11:44.781Z,87.27
2018-11-11T12:12:44.820Z,86.65
2018-11-11T12:13:44.907Z,86.99
2018-11-11T12:14:44.957Z,88.20
2018-11-11T12:15:45.011Z,88.55
2018-11-11T12:16:45.368Z,89.04
2018-11-11T12:17:45.112Z,89.23
2018-11-11T12:18:45.180Z,89.43
2018-11-11T12:19:45.230Z,89.18
2018-11-11T12:20:45.275Z,88.89
2018-11-11T12:21:45.341Z,88.89
2018-11-11T12:22:45.412Z,87.62
2018-11-11T12:23:45.439Z,88.26
2018-11-11T12:24:45.509Z,88.80
2018-11-11T12:25:45.549Z,89.19
2018-11-11T12:26:45.625Z,88.80
2018-11-11T12:27:45.651Z,89.29
2018-11-11T12:28:45.723Z,90.26
2018-11-11T12:29:45.783Z,90.40
2018-11-11T12:30:45.863Z,89.53
2018-11-11T12:31:45.890Z,89.53
2018-11-11T12:32:45.953Z,87.96
2018-11-11T12:33:46.012Z,88.26
2018-11-11T12:34:46.030Z,88.10
2018-11-11T12:35:46.095Z,87.56
2018-11-11T12:36:46.148Z,84.97
2018-11-11T12:37:46.195Z,83.45
2018-11-11T12:38:46.260Z,83.20
2018-11-11T12:39:46.401Z,81.70
2018-11-11T12:40:46.366Z,82.42
2018-11-11T12:41:46.449Z,83.24
2018-11-11T12:42:46.478Z,81.13
2018-11-11T12:43:46.543Z,78.70
2018-11-11T12:44:46.707Z,75.39
2018-11-11T12:45:46.646Z,74.44
2018-11-11T12:46:46.768Z,73.25
2018-11-11T12:47:46.810Z,67.05
2018-11-11T12:48:46.838Z,65.11
2018-11-11T12:49:46.936Z,64.06
2018-11-11T12:50:46.931Z,64.00
2018-11-11T12:51:47.013Z,63.24
2018-11-11T12:52:47.067Z,63.24